N850CB KBOS-KLGA
Flight info
| Callsign | N850CB |
|---|---|
| Flight time | 0h 44m |
| Altitude | 16000 |
| Route | PATSS7 PATSS DCT NELIE VADDR1 |
| Aircraft | C700/L-SDE2E3FGHUTRWXY/LB1 |
Departure
| Time | 2026-05-07 00:34 |
|---|---|
| Airport | Boston Logan International Airport (KBOS) |
Arrival
| Time | 2026-05-07 01:18 |
|---|---|
| Airport | LaGuardia Airport (KLGA) |
| Time | Latitude | Longitude | Altitude | Speed | Heading |
|---|---|---|---|---|---|
| 2026-05-07 00:24 | 42.37208 | -71.02211 | 17 ft | 2 kts | 211° |
| 2026-05-07 00:24 | 42.37156 | -71.02147 | 19 ft | 0 kts | 28° |
| 2026-05-07 00:24 | 42.37255 | -71.02079 | 21 ft | 50 kts | 35° |
| 2026-05-07 00:25 | 42.37352 | -71.01957 | 21 ft | 0 kts | 82° |
| 2026-05-07 00:27 | 42.37352 | -71.01954 | 21 ft | 6 kts | 89° |
| 2026-05-07 00:27 | 42.37282 | -71.01803 | 25 ft | 29 kts | 135° |
| 2026-05-07 00:27 | 42.37213 | -71.01711 | 23 ft | 0 kts | 133° |
| 2026-05-07 00:27 | 42.37208 | -71.01704 | 23 ft | 0 kts | 134° |
| 2026-05-07 00:28 | 42.37203 | -71.01699 | 23 ft | 14 kts | 144° |
| 2026-05-07 00:28 | 42.37025 | -71.01590 | 24 ft | 40 kts | 132° |
| 2026-05-07 00:28 | 42.36871 | -71.01364 | 20 ft | 20 kts | 107° |
| 2026-05-07 00:28 | 42.36901 | -71.01202 | 20 ft | 27 kts | 45° |
| 2026-05-07 00:29 | 42.36918 | -71.01181 | 19 ft | 0 kts | 41° |
| 2026-05-07 00:29 | 42.36919 | -71.01181 | 19 ft | 2 kts | 41° |
| 2026-05-07 00:30 | 42.37749 | -71.00688 | 24 ft | 24 kts | 19° |
| 2026-05-07 00:30 | 42.37766 | -71.00680 | 24 ft | 0 kts | 21° |
| 2026-05-07 00:31 | 42.37780 | -71.00673 | 24 ft | 16 kts | 21° |
| 2026-05-07 00:31 | 42.37828 | -71.00642 | 25 ft | 2 kts | 55° |
| 2026-05-07 00:31 | 42.37841 | -71.00596 | 23 ft | 3 kts | 94° |
| 2026-05-07 00:32 | 42.37841 | -71.00588 | 22 ft | 0 kts | 96° |
| 2026-05-07 00:32 | 42.37840 | -71.00580 | 22 ft | 1 kts | 99° |
| 2026-05-07 00:32 | 42.37839 | -71.00577 | 22 ft | 0 kts | 103° |
| 2026-05-07 00:33 | 42.37839 | -71.00575 | 22 ft | 0 kts | 103° |
| 2026-05-07 00:33 | 42.37838 | -71.00572 | 22 ft | 2 kts | 104° |
| 2026-05-07 00:33 | 42.37809 | -71.00494 | 21 ft | 20 kts | 135° |
| 2026-05-07 00:33 | 42.37691 | -71.00520 | 22 ft | 49 kts | 200° |
| 2026-05-07 00:34 | 42.37074 | -71.00812 | 85 ft | 133 kts | 200° |
| 2026-05-07 00:34 | 42.35995 | -71.01333 | 497 ft | 193 kts | 201° |
| 2026-05-07 00:34 | 42.34561 | -71.01940 | 1103 ft | 239 kts | 191° |
| 2026-05-07 00:34 | 42.32992 | -71.01426 | 1346 ft | 237 kts | 150° |
| 2026-05-07 00:35 | 42.32022 | -70.99650 | 1591 ft | 236 kts | 123° |
| 2026-05-07 00:35 | 42.31421 | -70.97560 | 1596 ft | 240 kts | 111° |
| 2026-05-07 00:35 | 42.31181 | -70.95290 | 1629 ft | 256 kts | 96° |
| 2026-05-07 00:35 | 42.31387 | -70.92808 | 2047 ft | 283 kts | 79° |
| 2026-05-07 00:36 | 42.31890 | -70.90149 | 2475 ft | 293 kts | 76° |
| 2026-05-07 00:36 | 42.32368 | -70.87481 | 2941 ft | 292 kts | 79° |
| 2026-05-07 00:36 | 42.32738 | -70.84744 | 2996 ft | 302 kts | 81° |
| 2026-05-07 00:36 | 42.33023 | -70.81948 | 2986 ft | 298 kts | 91° |
| 2026-05-07 00:37 | 42.32766 | -70.79198 | 2989 ft | 289 kts | 111° |
| 2026-05-07 00:37 | 42.32001 | -70.76743 | 2998 ft | 283 kts | 128° |
| 2026-05-07 00:37 | 42.30785 | -70.74713 | 3225 ft | 275 kts | 143° |
| 2026-05-07 00:37 | 42.29266 | -70.73204 | 3468 ft | 272 kts | 158° |
| 2026-05-07 00:38 | 42.27529 | -70.72293 | 3714 ft | 264 kts | 173° |
| 2026-05-07 00:38 | 42.25727 | -70.72010 | 3964 ft | 258 kts | 186° |
| 2026-05-07 00:38 | 42.23963 | -70.72309 | 4217 ft | 253 kts | 198° |
| 2026-05-07 00:38 | 42.22328 | -70.73096 | 4467 ft | 249 kts | 210° |
| 2026-05-07 00:39 | 42.20890 | -70.74289 | 4921 ft | 246 kts | 221° |
| 2026-05-07 00:39 | 42.19638 | -70.75868 | 5374 ft | 243 kts | 232° |
| 2026-05-07 00:39 | 42.18681 | -70.77691 | 6062 ft | 238 kts | 240° |
| 2026-05-07 00:39 | 42.18009 | -70.79723 | 6811 ft | 237 kts | 251° |
| 2026-05-07 00:40 | 42.17622 | -70.81894 | 7520 ft | 243 kts | 259° |
| 2026-05-07 00:40 | 42.17341 | -70.84186 | 8261 ft | 249 kts | 258° |
| 2026-05-07 00:40 | 42.17016 | -70.86486 | 9025 ft | 247 kts | 257° |
| 2026-05-07 00:40 | 42.16695 | -70.88751 | 9790 ft | 252 kts | 258° |
| 2026-05-07 00:41 | 42.16372 | -70.91113 | 10507 ft | 258 kts | 258° |
| 2026-05-07 00:41 | 42.16054 | -70.93467 | 11231 ft | 253 kts | 258° |
| 2026-05-07 00:41 | 42.15810 | -70.95850 | 11974 ft | 260 kts | 261° |
| 2026-05-07 00:41 | 42.15604 | -70.98258 | 12731 ft | 262 kts | 261° |
| 2026-05-07 00:42 | 42.15383 | -71.00723 | 13527 ft | 263 kts | 260° |
| 2026-05-07 00:42 | 42.15164 | -71.03158 | 14230 ft | 265 kts | 260° |
| 2026-05-07 00:42 | 42.14941 | -71.05645 | 14948 ft | 267 kts | 260° |
| 2026-05-07 00:42 | 42.14719 | -71.08133 | 15673 ft | 270 kts | 259° |
| 2026-05-07 00:43 | 42.14487 | -71.10707 | 16025 ft | 283 kts | 259° |
| 2026-05-07 00:43 | 42.14263 | -71.13239 | 16027 ft | 263 kts | 259° |
| 2026-05-07 00:43 | 42.14038 | -71.15728 | 16026 ft | 279 kts | 259° |
| 2026-05-07 00:43 | 42.13787 | -71.18426 | 16041 ft | 307 kts | 259° |
| 2026-05-07 00:44 | 42.13509 | -71.21456 | 16041 ft | 339 kts | 260° |
| 2026-05-07 00:44 | 42.13234 | -71.24590 | 16036 ft | 333 kts | 260° |
| 2026-05-07 00:44 | 42.12956 | -71.27665 | 16037 ft | 335 kts | 259° |
| 2026-05-07 00:44 | 42.12665 | -71.30806 | 16030 ft | 337 kts | 259° |
| 2026-05-07 00:45 | 42.12374 | -71.33962 | 16035 ft | 339 kts | 260° |
| 2026-05-07 00:45 | 42.12089 | -71.37082 | 16036 ft | 340 kts | 260° |
| 2026-05-07 00:45 | 42.11797 | -71.40256 | 16038 ft | 341 kts | 260° |
| 2026-05-07 00:45 | 42.11495 | -71.43499 | 16043 ft | 351 kts | 260° |
| 2026-05-07 00:46 | 42.11192 | -71.46754 | 16042 ft | 357 kts | 260° |
| 2026-05-07 00:46 | 42.10880 | -71.50108 | 16029 ft | 362 kts | 260° |
| 2026-05-07 00:46 | 42.10564 | -71.53496 | 16029 ft | 362 kts | 260° |
| 2026-05-07 00:46 | 42.10256 | -71.56805 | 16041 ft | 359 kts | 260° |
| 2026-05-07 00:47 | 42.09941 | -71.60145 | 16036 ft | 356 kts | 260° |
| 2026-05-07 00:47 | 42.09628 | -71.63451 | 16035 ft | 354 kts | 260° |
| 2026-05-07 00:47 | 42.09224 | -71.66690 | 16030 ft | 354 kts | 255° |
| 2026-05-07 00:47 | 42.08503 | -71.69863 | 16030 ft | 354 kts | 249° |
| 2026-05-07 00:48 | 42.07481 | -71.72898 | 16028 ft | 355 kts | 242° |
| 2026-05-07 00:48 | 42.06179 | -71.75726 | 16029 ft | 357 kts | 236° |
| 2026-05-07 00:48 | 42.04658 | -71.78359 | 16027 ft | 358 kts | 233° |
| 2026-05-07 00:48 | 42.03114 | -71.81000 | 16035 ft | 358 kts | 233° |
| 2026-05-07 00:49 | 42.01597 | -71.83616 | 16032 ft | 359 kts | 233° |
| 2026-05-07 00:49 | 42.00049 | -71.86264 | 16029 ft | 360 kts | 233° |
| 2026-05-07 00:49 | 41.98492 | -71.88916 | 16027 ft | 360 kts | 233° |
| 2026-05-07 00:49 | 41.96936 | -71.91570 | 16039 ft | 360 kts | 233° |
| 2026-05-07 00:50 | 41.95398 | -71.94191 | 16033 ft | 361 kts | 233° |
| 2026-05-07 00:50 | 41.93887 | -71.96889 | 16022 ft | 359 kts | 239° |
| 2026-05-07 00:50 | 41.92964 | -71.99964 | 16013 ft | 352 kts | 253° |
| 2026-05-07 00:50 | 41.92657 | -72.03170 | 16013 ft | 348 kts | 266° |
| 2026-05-07 00:51 | 41.92736 | -72.06406 | 16019 ft | 343 kts | 269° |
| 2026-05-07 00:51 | 41.92825 | -72.09598 | 16018 ft | 337 kts | 268° |
| 2026-05-07 00:51 | 41.92900 | -72.12694 | 16011 ft | 333 kts | 268° |
| 2026-05-07 00:51 | 41.92970 | -72.15795 | 16012 ft | 330 kts | 268° |
| 2026-05-07 00:52 | 41.93041 | -72.18864 | 16002 ft | 326 kts | 268° |
| 2026-05-07 00:52 | 41.93113 | -72.21900 | 16003 ft | 324 kts | 268° |
| 2026-05-07 00:52 | 41.93181 | -72.24908 | 16005 ft | 321 kts | 268° |
| 2026-05-07 00:52 | 41.93249 | -72.27910 | 16018 ft | 320 kts | 268° |
| 2026-05-07 00:53 | 41.93316 | -72.30867 | 16010 ft | 319 kts | 268° |
| 2026-05-07 00:53 | 41.93383 | -72.33845 | 16013 ft | 317 kts | 268° |
| 2026-05-07 00:53 | 41.93449 | -72.36808 | 16011 ft | 316 kts | 268° |
| 2026-05-07 00:53 | 41.93510 | -72.39764 | 16003 ft | 315 kts | 268° |
| 2026-05-07 00:54 | 41.93572 | -72.42669 | 16000 ft | 314 kts | 268° |
| 2026-05-07 00:54 | 41.93636 | -72.45611 | 16005 ft | 314 kts | 268° |
| 2026-05-07 00:54 | 41.93698 | -72.48548 | 16005 ft | 313 kts | 268° |
| 2026-05-07 00:54 | 41.93758 | -72.51463 | 16006 ft | 312 kts | 268° |
| 2026-05-07 00:55 | 41.93816 | -72.54345 | 16007 ft | 312 kts | 268° |
| 2026-05-07 00:55 | 41.93875 | -72.57253 | 16007 ft | 311 kts | 268° |
| 2026-05-07 00:55 | 41.93933 | -72.60163 | 16006 ft | 311 kts | 268° |
| 2026-05-07 00:55 | 41.93990 | -72.63073 | 16013 ft | 310 kts | 268° |
| 2026-05-07 00:56 | 41.93903 | -72.65963 | 16009 ft | 307 kts | 261° |
| 2026-05-07 00:56 | 41.93529 | -72.68744 | 16007 ft | 305 kts | 254° |
| 2026-05-07 00:56 | 41.92873 | -72.71465 | 16005 ft | 304 kts | 248° |
| 2026-05-07 00:56 | 41.91956 | -72.74032 | 16005 ft | 304 kts | 242° |
| 2026-05-07 00:57 | 41.90911 | -72.76503 | 16004 ft | 305 kts | 242° |
| 2026-05-07 00:57 | 41.89850 | -72.79065 | 16005 ft | 324 kts | 242° |
| 2026-05-07 00:57 | 41.88737 | -72.81755 | 16018 ft | 341 kts | 242° |
| 2026-05-07 00:57 | 41.87548 | -72.84601 | 16016 ft | 355 kts | 242° |
| 2026-05-07 00:58 | 41.86317 | -72.87534 | 16017 ft | 362 kts | 242° |
| 2026-05-07 00:58 | 41.85097 | -72.90459 | 16016 ft | 357 kts | 242° |
| 2026-05-07 00:58 | 41.83923 | -72.93254 | 16005 ft | 333 kts | 242° |
| 2026-05-07 00:58 | 41.82765 | -72.96019 | 16017 ft | 339 kts | 243° |
| 2026-05-07 00:59 | 41.80464 | -73.01542 | 16017 ft | 344 kts | 241° |
| 2026-05-07 00:59 | 41.79263 | -73.04345 | 16018 ft | 346 kts | 241° |
| 2026-05-07 00:59 | 41.78076 | -73.07172 | 16010 ft | 348 kts | 242° |
| 2026-05-07 01:00 | 41.76887 | -73.10016 | 16024 ft | 350 kts | 242° |
| 2026-05-07 01:00 | 41.75700 | -73.12829 | 16006 ft | 351 kts | 242° |
| 2026-05-07 01:00 | 41.74490 | -73.15691 | 16008 ft | 353 kts | 242° |
| 2026-05-07 01:00 | 41.73278 | -73.18562 | 16007 ft | 354 kts | 242° |
| 2026-05-07 01:01 | 41.72476 | -73.20464 | 16013 ft | 355 kts | 242° |
| 2026-05-07 01:01 | 41.71254 | -73.23355 | 16014 ft | 356 kts | 242° |
| 2026-05-07 01:01 | 41.69630 | -73.27190 | 16012 ft | 357 kts | 242° |
| 2026-05-07 01:01 | 41.68402 | -73.30088 | 16026 ft | 358 kts | 242° |
| 2026-05-07 01:02 | 41.67588 | -73.32004 | 16016 ft | 358 kts | 242° |
| 2026-05-07 01:02 | 41.66354 | -73.34915 | 16028 ft | 359 kts | 242° |
| 2026-05-07 01:02 | 41.65117 | -73.37824 | 16023 ft | 359 kts | 242° |
| 2026-05-07 01:02 | 41.63908 | -73.40666 | 16018 ft | 349 kts | 242° |
| 2026-05-07 01:03 | 41.62725 | -73.43441 | 16013 ft | 339 kts | 242° |
| 2026-05-07 01:03 | 41.61568 | -73.46159 | 15998 ft | 330 kts | 242° |
| 2026-05-07 01:03 | 41.60439 | -73.48805 | 16014 ft | 323 kts | 242° |
| 2026-05-07 01:03 | 41.59347 | -73.51363 | 16016 ft | 317 kts | 242° |
| 2026-05-07 01:04 | 41.58259 | -73.53912 | 16004 ft | 312 kts | 242° |
| 2026-05-07 01:04 | 41.57178 | -73.56441 | 16006 ft | 316 kts | 242° |
| 2026-05-07 01:04 | 41.56086 | -73.58997 | 16014 ft | 326 kts | 242° |
| 2026-05-07 01:04 | 41.54949 | -73.61651 | 15769 ft | 329 kts | 242° |
| 2026-05-07 01:05 | 41.53806 | -73.64310 | 15401 ft | 329 kts | 242° |
| 2026-05-07 01:05 | 41.52666 | -73.66968 | 15023 ft | 330 kts | 242° |
| 2026-05-07 01:05 | 41.51526 | -73.69631 | 14423 ft | 335 kts | 241° |
| 2026-05-07 01:05 | 41.50358 | -73.72343 | 13779 ft | 338 kts | 241° |
| 2026-05-07 01:06 | 41.49183 | -73.75068 | 13062 ft | 340 kts | 241° |
| 2026-05-07 01:06 | 41.47834 | -73.77669 | 12267 ft | 340 kts | 231° |
| 2026-05-07 01:06 | 41.46111 | -73.79717 | 11269 ft | 330 kts | 219° |
| 2026-05-07 01:06 | 41.44093 | -73.81217 | 10286 ft | 340 kts | 208° |
| 2026-05-07 01:07 | 41.41806 | -73.82078 | 9287 ft | 340 kts | 195° |
| 2026-05-07 01:07 | 41.39447 | -73.82221 | 8255 ft | 338 kts | 182° |
| 2026-05-07 01:07 | 41.37212 | -73.81645 | 7998 ft | 325 kts | 171° |
| 2026-05-07 01:07 | 41.35117 | -73.80475 | 7983 ft | 326 kts | 158° |
| 2026-05-07 01:08 | 41.33214 | -73.78811 | 7984 ft | 327 kts | 153° |
| 2026-05-07 01:08 | 41.31343 | -73.77114 | 7984 ft | 327 kts | 153° |
| 2026-05-07 01:08 | 41.29448 | -73.75413 | 7986 ft | 327 kts | 153° |
| 2026-05-07 01:08 | 41.27584 | -73.73713 | 7992 ft | 329 kts | 153° |
| 2026-05-07 01:09 | 41.25692 | -73.72000 | 7995 ft | 329 kts | 153° |
| 2026-05-07 01:09 | 41.23789 | -73.70291 | 7974 ft | 329 kts | 153° |
| 2026-05-07 01:09 | 41.21914 | -73.68601 | 7989 ft | 329 kts | 153° |
| 2026-05-07 01:09 | 41.20013 | -73.66886 | 7988 ft | 329 kts | 153° |
| 2026-05-07 01:10 | 41.18102 | -73.65165 | 7773 ft | 336 kts | 153° |
| 2026-05-07 01:10 | 41.16116 | -73.63391 | 7316 ft | 350 kts | 152° |
| 2026-05-07 01:10 | 41.14003 | -73.61772 | 6937 ft | 349 kts | 164° |
| 2026-05-07 01:10 | 41.11660 | -73.61164 | 6561 ft | 341 kts | 184° |
| 2026-05-07 01:11 | 41.09383 | -73.61572 | 6141 ft | 330 kts | 201° |
| 2026-05-07 01:11 | 41.07335 | -73.62890 | 5630 ft | 323 kts | 215° |
| 2026-05-07 01:11 | 41.05490 | -73.64455 | 4974 ft | 308 kts | 216° |
| 2026-05-07 01:11 | 41.03728 | -73.65990 | 4147 ft | 299 kts | 217° |
| 2026-05-07 01:12 | 41.02016 | -73.67458 | 3320 ft | 287 kts | 216° |
| 2026-05-07 01:12 | 41.00402 | -73.68817 | 3008 ft | 264 kts | 217° |
| 2026-05-07 01:12 | 40.98956 | -73.70029 | 2989 ft | 229 kts | 217° |
| 2026-05-07 01:12 | 40.97686 | -73.71095 | 2989 ft | 205 kts | 218° |
| 2026-05-07 01:13 | 40.96527 | -73.72055 | 2991 ft | 192 kts | 217° |
| 2026-05-07 01:13 | 40.95435 | -73.72946 | 2988 ft | 181 kts | 217° |
| 2026-05-07 01:13 | 40.94368 | -73.73803 | 2992 ft | 171 kts | 218° |
| 2026-05-07 01:13 | 40.93327 | -73.74639 | 3007 ft | 206 kts | 217° |
| 2026-05-07 01:14 | 40.92049 | -73.75718 | 3028 ft | 214 kts | 218° |
| 2026-05-07 01:14 | 40.90823 | -73.76753 | 2913 ft | 198 kts | 218° |
| 2026-05-07 01:14 | 40.89710 | -73.77672 | 2727 ft | 177 kts | 217° |
| 2026-05-07 01:14 | 40.88747 | -73.78440 | 2514 ft | 154 kts | 218° |
| 2026-05-07 01:15 | 40.87879 | -73.79110 | 2281 ft | 135 kts | 218° |
| 2026-05-07 01:15 | 40.87099 | -73.79730 | 1951 ft | 126 kts | 220° |
| 2026-05-07 01:15 | 40.86430 | -73.80333 | 1770 ft | 113 kts | 222° |
| 2026-05-07 01:15 | 40.85764 | -73.80964 | 1709 ft | 122 kts | 222° |
| 2026-05-07 01:16 | 40.85032 | -73.81617 | 1553 ft | 133 kts | 219° |
| 2026-05-07 01:16 | 40.84250 | -73.82330 | 1348 ft | 136 kts | 221° |
| 2026-05-07 01:16 | 40.83481 | -73.83030 | 1115 ft | 134 kts | 218° |
| 2026-05-07 01:16 | 40.82690 | -73.83655 | 913 ft | 128 kts | 214° |
| 2026-05-07 01:17 | 40.81951 | -73.84256 | 768 ft | 121 kts | 215° |
| 2026-05-07 01:17 | 40.81250 | -73.84863 | 662 ft | 124 kts | 214° |
| 2026-05-07 01:17 | 40.80502 | -73.85492 | 502 ft | 130 kts | 212° |
| 2026-05-07 01:17 | 40.79716 | -73.86106 | 332 ft | 132 kts | 212° |
| 2026-05-07 01:18 | 40.78947 | -73.86740 | 140 ft | 129 kts | 212° |
| 2026-05-07 01:18 | 40.78217 | -73.87343 | 18 ft | 114 kts | 211° |
| 2026-05-07 01:18 | 40.77621 | -73.87830 | 16 ft | 80 kts | 213° |
| 2026-05-07 01:18 | 40.77371 | -73.88038 | 13 ft | 30 kts | 214° |
| 2026-05-07 01:19 | 40.77281 | -73.88198 | 14 ft | 15 kts | 276° |
| 2026-05-07 01:19 | 40.77289 | -73.88221 | 13 ft | 0 kts | 312° |
| 2026-05-07 01:20 | 40.77290 | -73.88223 | 13 ft | 5 kts | 313° |
| 2026-05-07 01:20 | 40.77409 | -73.88154 | 11 ft | 25 kts | 32° |
| 2026-05-07 01:20 | 40.77554 | -73.88034 | 13 ft | 24 kts | 32° |
| 2026-05-07 01:21 | 40.77686 | -73.87928 | 13 ft | 2 kts | 33° |
| 2026-05-07 01:21 | 40.77724 | -73.87913 | 13 ft | 13 kts | 347° |
| 2026-05-07 01:21 | 40.77766 | -73.87972 | 14 ft | 2 kts | 302° |
| 2026-05-07 01:21 | 40.77798 | -73.88054 | 14 ft | 17 kts | 271° |
| 2026-05-07 01:22 | 40.77717 | -73.88106 | 14 ft | 1 kts | 109° |